createdAt,value
2019-02-17T00:02:57.092Z,7.10
2019-02-17T00:07:32.878Z,7.10
2019-02-17T00:12:08.637Z,7.10
2019-02-17T00:16:44.428Z,7.00
2019-02-17T00:21:20.284Z,7.10
2019-02-17T00:25:56.146Z,7.20
2019-02-17T00:30:31.917Z,7.20
2019-02-17T00:35:08.114Z,7.30
2019-02-17T00:39:43.905Z,7.30
2019-02-17T00:44:19.780Z,7.20
2019-02-17T00:48:55.561Z,7.10
2019-02-17T00:53:31.341Z,7.30
2019-02-17T00:58:07.106Z,7.40
2019-02-17T01:02:42.897Z,7.50
2019-02-17T01:07:18.648Z,7.30
2019-02-17T01:11:54.442Z,7.00
2019-02-17T01:16:30.197Z,6.90
2019-02-17T01:21:06.017Z,6.80
2019-02-17T01:25:41.786Z,6.80
2019-02-17T01:30:17.561Z,6.90
2019-02-17T01:34:53.328Z,7.00
2019-02-17T01:39:29.147Z,7.00
2019-02-17T01:44:05.273Z,6.90
2019-02-17T01:48:41.099Z,6.90
2019-02-17T01:53:16.857Z,6.80
2019-02-17T01:57:52.629Z,6.70
2019-02-17T02:02:28.409Z,6.70
2019-02-17T02:07:04.197Z,6.60
2019-02-17T02:11:39.965Z,6.50
2019-02-17T02:16:15.733Z,6.40
2019-02-17T02:20:51.499Z,6.30
2019-02-17T02:25:27.268Z,6.30
2019-02-17T02:30:03.034Z,6.30
2019-02-17T02:34:36.987Z,6.40
2019-02-17T02:39:12.807Z,6.40
2019-02-17T02:43:48.577Z,6.50
2019-02-17T02:48:24.345Z,6.30
2019-02-17T02:53:00.171Z,6.30
2019-02-17T02:57:35.969Z,6.20
2019-02-17T03:02:11.744Z,6.10
2019-02-17T03:07:08.921Z,6.20
2019-02-17T03:11:44.758Z,6.10
2019-02-17T03:16:20.521Z,5.90
2019-02-17T03:20:56.313Z,5.90
2019-02-17T03:25:32.052Z,5.80
2019-02-17T03:30:09.123Z,5.90
2019-02-17T03:34:44.957Z,5.90
2019-02-17T03:39:20.767Z,5.80
2019-02-17T03:43:56.589Z,5.90
2019-02-17T03:48:32.365Z,6.10
2019-02-17T03:53:08.176Z,6.00
2019-02-17T03:57:43.960Z,6.00
2019-02-17T04:02:19.717Z,6.00
2019-02-17T04:06:55.589Z,6.00
2019-02-17T04:11:31.483Z,6.10
2019-02-17T04:16:06.745Z,6.00
2019-02-17T04:20:42.493Z,5.90
2019-02-17T04:25:18.300Z,6.00
2019-02-17T04:29:54.089Z,6.00
2019-02-17T04:34:29.931Z,5.80
2019-02-17T04:39:06.884Z,5.80
2019-02-17T04:43:42.683Z,5.90
2019-02-17T04:48:18.445Z,5.80
2019-02-17T04:52:54.222Z,5.80
2019-02-17T04:57:30.008Z,5.70
2019-02-17T05:02:05.806Z,5.70
2019-02-17T05:06:41.566Z,5.40
2019-02-17T05:11:17.437Z,5.40
2019-02-17T05:15:53.201Z,5.40
2019-02-17T05:20:28.974Z,5.40
2019-02-17T05:25:04.999Z,5.50
2019-02-17T05:29:40.787Z,5.50
2019-02-17T05:34:16.555Z,5.50
2019-02-17T05:38:52.330Z,5.40
2019-02-17T05:43:28.157Z,5.40
2019-02-17T05:48:05.797Z,5.30
2019-02-17T05:52:41.541Z,5.30
2019-02-17T05:57:17.320Z,5.30
2019-02-17T06:01:53.095Z,5.40
2019-02-17T06:06:28.873Z,5.50
2019-02-17T06:11:04.636Z,5.60
2019-02-17T06:15:40.427Z,5.50
2019-02-17T06:20:16.176Z,5.50
2019-02-17T06:24:51.958Z,5.30
2019-02-17T06:29:27.713Z,5.30
2019-02-17T06:34:03.494Z,5.30
2019-02-17T06:38:39.337Z,5.30
2019-02-17T06:43:16.575Z,5.30
2019-02-17T06:47:52.322Z,5.20
2019-02-17T06:52:28.096Z,5.10
2019-02-17T06:57:26.639Z,4.90
2019-02-17T07:02:02.468Z,4.80
2019-02-17T07:06:48.690Z,4.70
2019-02-17T07:11:24.487Z,4.90
2019-02-17T07:16:00.251Z,4.90
2019-02-17T07:20:36.026Z,5.00
2019-02-17T07:25:11.780Z,4.90
2019-02-17T07:29:47.565Z,5.10
2019-02-17T07:34:23.328Z,5.00
2019-02-17T07:38:59.115Z,5.10
2019-02-17T07:43:34.869Z,5.20
2019-02-17T07:48:10.647Z,5.20
2019-02-17T07:52:46.476Z,5.20
2019-02-17T07:57:22.266Z,5.30
2019-02-17T08:01:58.041Z,5.40
2019-02-17T08:06:33.847Z,5.50
2019-02-17T08:11:09.621Z,5.50
2019-02-17T08:15:45.401Z,5.60
2019-02-17T08:20:21.214Z,5.60
2019-02-17T08:24:57.021Z,5.70
2019-02-17T08:29:32.776Z,5.80
2019-02-17T08:34:08.565Z,5.80
2019-02-17T08:38:44.323Z,5.90
2019-02-17T08:43:20.097Z,6.10
2019-02-17T08:47:55.869Z,6.10
2019-02-17T08:52:31.657Z,6.00
2019-02-17T08:57:07.411Z,6.10
2019-02-17T09:01:43.205Z,6.20
2019-02-17T09:06:18.986Z,6.30
2019-02-17T09:10:54.795Z,6.40
2019-02-17T09:15:31.194Z,6.70
2019-02-17T09:20:09.647Z,7.00
2019-02-17T09:24:45.456Z,7.20
2019-02-17T09:29:21.233Z,7.30
2019-02-17T09:33:57.000Z,7.50
2019-02-17T09:38:32.785Z,7.70
2019-02-17T09:43:08.549Z,7.80
2019-02-17T09:47:44.357Z,7.90
2019-02-17T09:52:20.122Z,8.10
2019-02-17T09:56:58.820Z,8.20
2019-02-17T10:01:42.673Z,8.40
2019-02-17T10:06:19.276Z,8.60
2019-02-17T10:10:55.137Z,8.70
2019-02-17T10:15:30.920Z,8.80
2019-02-17T10:20:10.846Z,8.90
2019-02-17T10:24:46.170Z,9.00
2019-02-17T10:29:23.766Z,9.10
2019-02-17T10:33:59.759Z,9.30
2019-02-17T10:38:37.523Z,9.40
2019-02-17T10:43:13.314Z,9.50
2019-02-17T10:47:49.100Z,9.60
2019-02-17T10:52:26.361Z,9.60
2019-02-17T11:01:38.094Z,9.80
2019-02-17T11:06:13.873Z,10.00
2019-02-17T11:10:49.663Z,10.10
2019-02-17T11:15:25.458Z,10.30
2019-02-17T11:20:01.247Z,10.40
2019-02-17T11:24:37.104Z,10.60
2019-02-17T11:29:12.918Z,10.70
2019-02-17T11:33:49.071Z,11.00
2019-02-17T11:38:25.216Z,11.20
2019-02-17T11:43:00.993Z,11.40
2019-02-17T11:47:38.022Z,11.50
2019-02-17T11:52:13.792Z,11.40
2019-02-17T11:56:49.576Z,11.40
2019-02-17T12:01:25.640Z,11.40
2019-02-17T12:06:01.434Z,11.80
2019-02-17T12:10:37.203Z,12.00
2019-02-17T12:15:15.384Z,12.10
2019-02-17T12:19:52.735Z,12.10
2019-02-17T12:25:02.633Z,12.20
2019-02-17T12:29:50.877Z,12.30
2019-02-17T12:34:26.680Z,12.40
2019-02-17T12:39:02.535Z,12.60
2019-02-17T12:43:40.289Z,12.80
2019-02-17T12:48:16.061Z,12.70
2019-02-17T12:52:51.853Z,12.90
2019-02-17T12:57:27.613Z,12.90
2019-02-17T13:02:03.400Z,12.90
2019-02-17T13:06:39.158Z,13.00
2019-02-17T13:11:14.948Z,13.30
2019-02-17T13:15:50.737Z,13.40
2019-02-17T13:20:26.568Z,13.30
2019-02-17T13:25:02.341Z,13.60
2019-02-17T13:29:40.204Z,13.70
2019-02-17T13:34:15.591Z,13.90
2019-02-17T13:38:51.401Z,14.00
2019-02-17T13:43:27.165Z,14.10
2019-02-17T13:48:02.962Z,14.00
2019-02-17T13:52:38.728Z,14.20
2019-02-17T13:57:14.516Z,14.20
2019-02-17T14:01:50.296Z,14.30
2019-02-17T14:06:26.109Z,14.40
2019-02-17T14:11:01.885Z,14.40
2019-02-17T14:15:37.698Z,14.60
2019-02-17T14:20:13.464Z,14.60
2019-02-17T14:24:49.595Z,14.50
2019-02-17T14:29:26.461Z,14.60
2019-02-17T14:34:02.277Z,14.60
2019-02-17T14:38:38.090Z,14.60
2019-02-17T14:43:13.872Z,14.60
2019-02-17T14:47:49.644Z,14.50
2019-02-17T14:52:25.424Z,14.60
2019-02-17T14:57:01.188Z,14.60
2019-02-17T15:01:36.996Z,14.60
2019-02-17T15:06:12.762Z,14.50
2019-02-17T15:10:48.030Z,14.30
2019-02-17T15:15:23.865Z,14.30
2019-02-17T15:19:59.661Z,14.20
2019-02-17T15:24:36.903Z,14.10
2019-02-17T15:29:12.729Z,14.00
2019-02-17T15:33:48.489Z,14.00
2019-02-17T15:38:24.277Z,13.90
2019-02-17T15:43:00.066Z,13.80
2019-02-17T15:47:35.859Z,13.60
2019-02-17T15:52:11.655Z,13.40
2019-02-17T15:56:47.460Z,13.20
2019-02-17T16:01:23.228Z,13.00
2019-02-17T16:05:59.073Z,12.70
2019-02-17T16:10:34.848Z,12.60
2019-02-17T16:15:13.097Z,12.40
2019-02-17T16:19:48.866Z,12.30
2019-02-17T16:24:24.949Z,12.10
2019-02-17T16:29:00.853Z,12.00
2019-02-17T16:33:36.668Z,11.90
2019-02-17T16:38:12.467Z,11.80
2019-02-17T16:42:48.268Z,11.60
2019-02-17T16:47:24.044Z,11.60
2019-02-17T16:51:59.842Z,11.40
2019-02-17T16:56:35.603Z,11.30
2019-02-17T17:01:11.401Z,11.00
2019-02-17T17:05:47.189Z,10.80
2019-02-17T17:10:23.034Z,10.70
2019-02-17T17:14:58.847Z,10.60
2019-02-17T17:19:34.712Z,10.50
2019-02-17T17:24:10.516Z,10.30
2019-02-17T17:28:46.309Z,10.10
2019-02-17T17:33:22.082Z,10.00
2019-02-17T17:37:57.888Z,9.90
2019-02-17T17:42:33.641Z,9.90
2019-02-17T17:47:11.303Z,9.70
2019-02-17T17:51:47.027Z,9.50
2019-02-17T17:56:23.045Z,9.50
2019-02-17T18:00:58.816Z,9.40
2019-02-17T18:05:34.592Z,9.40
2019-02-17T18:10:13.946Z,9.40
2019-02-17T18:14:50.241Z,9.40
2019-02-17T18:19:25.996Z,9.40
2019-02-17T18:24:01.795Z,9.40
2019-02-17T18:28:39.292Z,9.30
2019-02-17T18:33:13.157Z,9.30
2019-02-17T18:37:48.945Z,9.20
2019-02-17T18:42:24.801Z,9.00
2019-02-17T18:47:00.589Z,8.80
2019-02-17T18:51:36.608Z,8.80
2019-02-17T18:56:12.398Z,8.80
2019-02-17T19:00:48.274Z,8.60
2019-02-17T19:05:31.601Z,8.60
2019-02-17T19:10:01.612Z,8.70
2019-02-17T19:14:37.469Z,8.70
2019-02-17T19:19:13.424Z,8.70
2019-02-17T19:23:50.404Z,8.70
2019-02-17T19:28:26.415Z,8.60
2019-02-17T19:33:02.240Z,8.60
2019-02-17T19:37:38.025Z,8.60
2019-02-17T19:42:13.809Z,8.60
2019-02-17T19:46:49.674Z,8.50
2019-02-17T19:51:25.666Z,8.30
2019-02-17T19:56:01.472Z,8.20
2019-02-17T20:00:37.425Z,8.10
2019-02-17T20:05:16.928Z,8.10
2019-02-17T20:09:52.708Z,8.00
2019-02-17T20:14:28.507Z,7.80
2019-02-17T20:19:04.358Z,7.90
2019-02-17T20:23:40.162Z,7.90
2019-02-17T20:28:15.944Z,8.00
2019-02-17T20:32:51.712Z,8.00
2019-02-17T20:37:27.482Z,7.90
2019-02-17T20:42:03.258Z,7.90
2019-02-17T20:46:39.033Z,7.90
2019-02-17T20:51:14.911Z,7.90
2019-02-17T20:55:52.974Z,7.90
2019-02-17T21:00:29.336Z,7.90
2019-02-17T21:05:05.858Z,7.90
2019-02-17T21:09:43.424Z,7.70
2019-02-17T21:14:19.184Z,7.70
2019-02-17T21:18:54.983Z,7.40
2019-02-17T21:23:30.732Z,7.40
2019-02-17T21:28:06.518Z,7.40
2019-02-17T21:32:42.297Z,7.50
2019-02-17T21:37:18.096Z,7.70
2019-02-17T21:41:53.937Z,7.60
2019-02-17T21:46:29.726Z,7.50
2019-02-17T21:51:05.505Z,7.50
2019-02-17T21:55:41.398Z,7.50
2019-02-17T22:00:18.767Z,7.50
2019-02-17T22:04:54.588Z,7.50
2019-02-17T22:09:30.357Z,7.30
2019-02-17T22:14:06.225Z,7.40
2019-02-17T22:18:41.973Z,7.30
2019-02-17T22:23:17.786Z,7.20
2019-02-17T22:27:53.577Z,7.20
2019-02-17T22:32:29.410Z,7.20
2019-02-17T22:37:05.194Z,7.20
2019-02-17T22:41:40.990Z,7.20
2019-02-17T22:46:16.955Z,7.10
2019-02-17T22:50:52.734Z,7.00
2019-02-17T22:55:28.508Z,7.00
2019-02-17T23:00:06.317Z,7.20
2019-02-17T23:04:42.096Z,7.10
2019-02-17T23:09:18.664Z,7.10
2019-02-17T23:13:54.444Z,7.00
2019-02-17T23:18:30.243Z,7.10
2019-02-17T23:23:06.074Z,7.20
2019-02-17T23:27:41.916Z,7.20
2019-02-17T23:32:17.677Z,7.20
2019-02-17T23:36:53.463Z,7.20
2019-02-17T23:41:29.220Z,7.20
2019-02-17T23:46:05.005Z,7.10
2019-02-17T23:50:40.765Z,6.90
2019-02-17T23:55:16.544Z,6.60
2019-02-17T23:59:52.310Z,6.60
